createdAt,value
2018-12-05T00:00:26.101Z,101005.20
2018-12-05T00:02:54.500Z,101008.67
2018-12-05T00:05:22.988Z,101011.91
2018-12-05T00:07:52.035Z,101010.27
2018-12-05T00:10:20.524Z,101013.71
2018-12-05T00:12:48.898Z,101014.44
2018-12-05T00:15:17.324Z,101015.47
2018-12-05T00:17:45.865Z,101013.34
2018-12-05T00:20:14.451Z,101017.52
2018-12-05T00:22:42.777Z,101020.67
2018-12-05T00:25:11.125Z,101017.01
2018-12-05T00:27:39.435Z,101018.73
2018-12-05T00:30:07.785Z,101022.00
2018-12-05T00:32:36.172Z,101023.31
2018-12-05T00:35:04.777Z,101018.52
2018-12-05T00:37:33.128Z,101026.55
2018-12-05T00:40:01.537Z,101031.14
2018-12-05T00:42:32.678Z,101029.00
2018-12-05T00:45:01.061Z,101035.91
2018-12-05T00:47:29.385Z,101042.40
2018-12-05T00:49:57.726Z,101039.25
2018-12-05T00:52:26.038Z,101045.84
2018-12-05T00:54:54.529Z,101048.16
2018-12-05T00:57:23.214Z,101049.38
2018-12-05T00:59:51.540Z,101053.77
2018-12-05T01:02:20.351Z,101058.25
2018-12-05T01:04:48.948Z,101061.77
2018-12-05T01:07:17.400Z,101068.88
2018-12-05T01:09:46.792Z,101072.22
2018-12-05T01:12:15.119Z,101076.19
2018-12-05T01:14:43.465Z,101075.67
2018-12-05T01:17:11.820Z,101072.81
2018-12-05T01:19:40.161Z,101074.70
2018-12-05T01:22:08.509Z,101083.88
2018-12-05T01:24:36.897Z,101082.38
2018-12-05T01:27:05.253Z,101078.90
2018-12-05T01:29:33.787Z,101085.09
2018-12-05T01:32:02.268Z,101090.38
2018-12-05T01:34:30.698Z,101084.93
2018-12-05T01:36:59.055Z,101087.69
2018-12-05T01:39:27.457Z,101086.77
2018-12-05T01:41:56.362Z,101087.57
2018-12-05T01:44:26.587Z,101082.36
2018-12-05T01:46:54.928Z,101076.27
2018-12-05T01:49:23.291Z,101079.72
2018-12-05T01:51:51.737Z,101082.94
2018-12-05T01:54:20.097Z,101081.27
2018-12-05T01:56:48.525Z,101082.59
2018-12-05T01:59:16.891Z,101082.12
2018-12-05T02:01:45.357Z,101078.33
2018-12-05T02:04:13.860Z,101079.59
2018-12-05T02:06:42.961Z,101072.09
2018-12-05T02:09:11.400Z,101070.98
2018-12-05T02:11:39.724Z,101066.58
2018-12-05T02:14:08.065Z,101076.66
2018-12-05T02:16:36.773Z,101071.84
2018-12-05T02:19:05.151Z,101075.56
2018-12-05T02:21:34.008Z,101078.02
2018-12-05T02:24:02.340Z,101080.56
2018-12-05T02:26:30.690Z,101081.03
2018-12-05T02:28:59.157Z,101089.06
2018-12-05T02:31:27.485Z,101100.38
2018-12-05T02:33:55.833Z,101097.03
2018-12-05T02:36:24.209Z,101095.85
2018-12-05T02:38:52.715Z,101089.31
2018-12-05T02:41:21.302Z,101087.02
2018-12-05T02:43:49.741Z,101081.91
2018-12-05T02:46:18.173Z,101087.45
2018-12-05T02:48:46.676Z,101085.58
2018-12-05T02:51:15.221Z,101093.36
2018-12-05T02:53:43.657Z,101097.86
2018-12-05T02:56:11.989Z,101093.70
2018-12-05T02:58:40.419Z,101091.15
2018-12-05T03:01:08.946Z,101090.13
2018-12-05T03:03:37.292Z,101095.91
2018-12-05T03:06:05.830Z,101099.18
2018-12-05T03:08:34.168Z,101096.33
2018-12-05T03:11:02.621Z,101108.83
2018-12-05T03:13:31.157Z,101106.28
2018-12-05T03:15:59.741Z,101102.63
2018-12-05T03:18:28.445Z,101111.04
2018-12-05T03:20:56.820Z,101111.46
2018-12-05T03:23:25.165Z,101111.13
2018-12-05T03:25:53.611Z,101108.83
2018-12-05T03:28:22.056Z,101114.14
2018-12-05T03:30:50.415Z,101118.97
2018-12-05T03:33:18.853Z,101117.47
2018-12-05T03:35:47.224Z,101120.95
2018-12-05T03:38:15.557Z,101117.72
2018-12-05T03:40:44.284Z,101124.64
2018-12-05T03:43:12.640Z,101125.11
2018-12-05T03:45:41.069Z,101121.16
2018-12-05T03:48:09.543Z,101110.16
2018-12-05T03:50:38.084Z,101103.91
2018-12-05T03:53:06.577Z,101109.98
2018-12-05T03:55:34.988Z,101111.17
2018-12-05T03:58:03.424Z,101113.77
2018-12-05T04:00:31.820Z,101115.14
2018-12-05T04:03:00.244Z,101118.62
2018-12-05T04:05:28.830Z,101124.98
2018-12-05T04:07:57.196Z,101124.75
2018-12-05T04:10:26.169Z,101129.78
2018-12-05T04:12:54.629Z,101136.25
2018-12-05T04:15:23.049Z,101136.36
2018-12-05T04:17:51.411Z,101137.23
2018-12-05T04:20:19.771Z,101134.60
2018-12-05T04:22:48.446Z,101130.66
2018-12-05T04:25:17.029Z,101134.23
2018-12-05T04:27:45.459Z,101135.05
2018-12-05T04:30:13.825Z,101132.81
2018-12-05T04:32:42.176Z,101128.73
2018-12-05T04:35:10.552Z,101135.18
2018-12-05T04:37:38.908Z,101133.93
2018-12-05T04:40:07.343Z,101127.89
2018-12-05T04:42:35.689Z,101130.89
2018-12-05T04:45:04.218Z,101130.15
2018-12-05T04:47:32.803Z,101130.82
2018-12-05T04:50:01.155Z,101139.06
2018-12-05T04:52:29.526Z,101135.17
2018-12-05T04:54:57.860Z,101137.19
2018-12-05T04:57:26.220Z,101137.22
2018-12-05T04:59:54.598Z,101138.27
2018-12-05T05:02:22.947Z,101139.96
2018-12-05T05:04:51.339Z,101138.81
2018-12-05T05:07:19.964Z,101144.44
2018-12-05T05:09:48.373Z,101149.98
2018-12-05T05:12:16.769Z,101158.61
2018-12-05T05:14:45.136Z,101146.94
2018-12-05T05:17:13.560Z,101157.94
2018-12-05T05:19:41.951Z,101158.55
2018-12-05T05:22:10.306Z,101166.76
2018-12-05T05:24:38.692Z,101166.12
2018-12-05T05:27:07.015Z,101166.14
2018-12-05T05:29:35.610Z,101173.09
2018-12-05T05:32:04.304Z,101177.55
2018-12-05T05:34:32.745Z,101174.41
2018-12-05T05:37:01.098Z,101169.48
2018-12-05T05:39:29.556Z,101173.81
2018-12-05T05:41:58.006Z,101179.70
2018-12-05T05:44:26.368Z,101178.77
2018-12-05T05:46:54.860Z,101177.95
2018-12-05T05:49:23.195Z,101189.22
2018-12-05T05:51:51.604Z,101176.91
2018-12-05T05:54:19.986Z,101176.77
2018-12-05T05:56:48.337Z,101180.76
2018-12-05T05:59:16.737Z,101184.30
2018-12-05T06:01:45.107Z,101172.69
2018-12-05T06:04:15.791Z,101169.53
2018-12-05T06:06:44.581Z,101170.75
2018-12-05T06:09:13.327Z,101183.05
2018-12-05T06:11:41.716Z,101180.62
2018-12-05T06:14:10.112Z,101177.95
2018-12-05T06:16:38.575Z,101186.75
2018-12-05T06:19:07.030Z,101180.70
2018-12-05T06:21:35.428Z,101189.44
2018-12-05T06:24:07.095Z,101196.05
2018-12-05T06:26:35.568Z,101199.19
2018-12-05T06:29:03.960Z,101198.54
2018-12-05T06:31:32.505Z,101204.98
2018-12-05T06:34:00.859Z,101203.36
2018-12-05T06:36:29.227Z,101212.59
2018-12-05T06:38:59.447Z,101211.44
2018-12-05T06:41:28.251Z,101207.64
2018-12-05T06:43:56.594Z,101211.58
2018-12-05T06:46:25.013Z,101220.20
2018-12-05T06:48:53.443Z,101224.45
2018-12-05T06:51:22.032Z,101222.81
2018-12-05T06:53:50.490Z,101223.79
2018-12-05T06:56:18.887Z,101233.50
2018-12-05T06:58:47.243Z,101231.38
2018-12-05T07:01:15.952Z,101230.18
2018-12-05T07:03:47.488Z,101225.08
2018-12-05T07:06:15.895Z,101224.36
2018-12-05T07:08:44.254Z,101223.66
2018-12-05T07:11:12.604Z,101225.90
2018-12-05T07:13:41.023Z,101224.86
2018-12-05T07:16:09.364Z,101228.48
2018-12-05T07:18:37.750Z,101230.45
2018-12-05T07:21:06.164Z,101238.77
2018-12-05T07:23:34.548Z,101245.23
2018-12-05T07:26:02.913Z,101247.42
2018-12-05T07:28:31.360Z,101260.70
2018-12-05T07:30:59.809Z,101263.06
2018-12-05T07:33:28.265Z,101265.78
2018-12-05T07:35:57.392Z,101277.76
2018-12-05T07:38:25.858Z,101278.73
2018-12-05T07:40:54.228Z,101281.39
2018-12-05T07:43:22.759Z,101283.45
2018-12-05T07:45:51.243Z,101280.92
2018-12-05T07:48:19.567Z,101291.22
2018-12-05T07:50:47.948Z,101290.52
2018-12-05T07:53:16.531Z,101289.44
2018-12-05T07:55:44.873Z,101295.47
2018-12-05T07:58:13.298Z,101294.66
2018-12-05T08:00:41.690Z,101290.52
2018-12-05T08:03:09.985Z,101283.73
2018-12-05T08:05:38.351Z,101293.50
2018-12-05T08:08:06.685Z,101296.44
2018-12-05T08:10:35.815Z,101294.31
2018-12-05T08:13:04.284Z,101302.36
2018-12-05T08:15:33.395Z,101302.77
2018-12-05T08:18:01.905Z,101300.63
2018-12-05T08:20:30.605Z,101302.72
2018-12-05T08:22:58.939Z,101295.77
2018-12-05T08:25:27.456Z,101297.54
2018-12-05T08:27:55.804Z,101307.96
2018-12-05T08:30:24.377Z,101293.65
2018-12-05T08:32:52.872Z,101299.26
2018-12-05T08:35:21.223Z,101301.08
2018-12-05T08:37:49.627Z,101307.64
2018-12-05T08:40:17.997Z,101307.85
2018-12-05T08:42:46.352Z,101302.95
2018-12-05T08:45:14.771Z,101306.64
2018-12-05T08:47:43.112Z,101302.45
2018-12-05T08:50:11.515Z,101301.44
2018-12-05T08:52:39.915Z,101312.60
2018-12-05T08:55:08.620Z,101312.80
2018-12-05T08:57:37.317Z,101311.80
2018-12-05T09:00:07.077Z,101313.12
2018-12-05T09:02:35.444Z,101318.59
2018-12-05T09:05:04.900Z,101314.91
2018-12-05T09:07:33.384Z,101321.45
2018-12-05T09:10:01.830Z,101318.42
2018-12-05T09:12:30.213Z,101322.47
2018-12-05T09:14:58.691Z,101312.16
2018-12-05T09:17:27.171Z,101307.34
2018-12-05T09:19:55.632Z,101310.51
2018-12-05T09:22:24.036Z,101305.25
2018-12-05T09:24:52.388Z,101313.23
2018-12-05T09:27:20.947Z,101308.22
2018-12-05T09:29:49.383Z,101305.24
2018-12-05T09:32:17.703Z,101302.35
2018-12-05T09:34:46.027Z,101298.15
2018-12-05T09:37:14.412Z,101292.81
2018-12-05T09:39:42.847Z,101290.23
2018-12-05T09:42:11.277Z,101284.66
2018-12-05T09:44:39.810Z,101288.64
2018-12-05T09:47:08.326Z,101286.03
2018-12-05T09:49:36.650Z,101284.59
2018-12-05T09:52:04.986Z,101276.05
2018-12-05T09:54:33.613Z,101270.33
2018-12-05T09:57:02.120Z,101272.57
2018-12-05T09:59:30.597Z,101267.35
2018-12-05T10:01:59.177Z,101260.15
2018-12-05T10:04:27.579Z,101258.76
2018-12-05T10:06:55.900Z,101249.15
2018-12-05T10:09:24.251Z,101251.87
2018-12-05T10:11:52.581Z,101245.77
2018-12-05T10:14:20.923Z,101252.66
2018-12-05T10:16:49.260Z,101249.88
2018-12-05T10:19:17.612Z,101251.45
2018-12-05T10:21:46.020Z,101253.43
2018-12-05T10:24:14.408Z,101246.34
2018-12-05T10:26:42.873Z,101245.42
2018-12-05T10:29:11.184Z,101245.64
2018-12-05T10:31:44.033Z,101241.14
2018-12-05T10:34:10.059Z,101239.66
2018-12-05T10:36:38.951Z,101236.90
2018-12-05T10:39:07.291Z,101238.06
2018-12-05T10:41:35.631Z,101232.51
2018-12-05T10:44:03.976Z,101230.98
2018-12-05T10:46:32.353Z,101226.63
2018-12-05T10:49:00.731Z,101231.34
2018-12-05T10:51:29.315Z,101227.13
2018-12-05T10:53:57.675Z,101224.52
2018-12-05T10:56:26.085Z,101223.91
2018-12-05T10:58:54.529Z,101219.83
2018-12-05T11:01:28.605Z,101209.14
2018-12-05T11:03:56.950Z,101200.05
2018-12-05T11:09:34.673Z,101191.26
2018-12-05T11:12:09.008Z,101188.14
2018-12-05T11:14:42.924Z,101187.50
2018-12-05T11:17:16.805Z,101184.64
2018-12-05T11:20:02.254Z,101182.47
2018-12-05T11:22:36.419Z,101185.73
2018-12-05T11:25:06.700Z,101183.30
2018-12-05T11:27:35.659Z,101178.66
2018-12-05T11:30:04.878Z,101177.32
2018-12-05T11:32:33.226Z,101178.64
2018-12-05T11:35:01.716Z,101182.36
2018-12-05T11:37:30.154Z,101182.87
2018-12-05T11:39:59.992Z,101174.97
2018-12-05T11:42:28.387Z,101166.02
2018-12-05T11:44:57.039Z,101169.32
2018-12-05T11:47:25.523Z,101163.39
2018-12-05T11:49:54.056Z,101159.43
2018-12-05T11:52:22.449Z,101161.55
2018-12-05T11:54:50.775Z,101157.09
2018-12-05T11:57:21.047Z,101144.19
2018-12-05T11:59:49.389Z,101152.47
2018-12-05T12:02:22.335Z,101158.66
2018-12-05T12:04:49.096Z,101148.58
2018-12-05T12:07:17.469Z,101148.83
2018-12-05T12:09:45.809Z,101149.67
2018-12-05T12:15:16.976Z,101148.27
2018-12-05T12:17:45.462Z,101151.78
2018-12-05T12:20:13.841Z,101153.34
2018-12-05T12:22:42.169Z,101152.19
2018-12-05T12:25:10.598Z,101147.39
2018-12-05T12:27:38.944Z,101145.34
2018-12-05T12:30:07.315Z,101144.55
2018-12-05T12:32:35.766Z,101135.94
2018-12-05T12:35:04.372Z,101133.00
2018-12-05T12:37:32.812Z,101130.51
2018-12-05T12:40:01.222Z,101132.42
2018-12-05T12:42:29.672Z,101130.33
2018-12-05T12:44:58.030Z,101116.58
2018-12-05T12:47:26.364Z,101112.41
2018-12-05T12:49:54.743Z,101117.41
2018-12-05T12:52:23.223Z,101115.70
2018-12-05T12:54:51.983Z,101116.23
2018-12-05T12:57:20.371Z,101113.19
2018-12-05T12:59:48.696Z,101102.90
2018-12-05T13:02:17.183Z,101111.91
2018-12-05T13:04:45.612Z,101099.56
2018-12-05T13:07:14.307Z,101100.03
2018-12-05T13:09:42.637Z,101087.44
2018-12-05T13:12:12.901Z,101094.90
2018-12-05T13:14:41.231Z,101099.52
2018-12-05T13:17:09.712Z,101091.48
2018-12-05T13:19:38.048Z,101085.73
2018-12-05T13:22:06.506Z,101082.97
2018-12-05T13:24:34.936Z,101077.97
2018-12-05T13:27:03.611Z,101079.20
2018-12-05T13:29:31.967Z,101081.50
2018-12-05T13:32:00.342Z,101073.16
2018-12-05T13:34:28.752Z,101076.07
2018-12-05T13:36:57.101Z,101067.62
2018-12-05T13:39:25.428Z,101062.97
2018-12-05T13:41:53.859Z,101062.26
2018-12-05T13:44:22.197Z,101058.13
2018-12-05T13:46:50.619Z,101058.11
2018-12-05T13:49:19.248Z,101054.66
2018-12-05T13:51:47.599Z,101057.91
2018-12-05T13:54:15.983Z,101055.21
2018-12-05T13:56:44.474Z,101055.81
2018-12-05T13:59:13.056Z,101059.53
2018-12-05T14:01:41.770Z,101066.91
2018-12-05T14:04:10.099Z,101056.47
2018-12-05T14:06:38.474Z,101062.66
2018-12-05T14:09:07.160Z,101058.03
2018-12-05T14:11:35.613Z,101053.98
2018-12-05T14:14:03.955Z,101053.92
2018-12-05T14:16:32.294Z,101055.50
2018-12-05T14:19:00.663Z,101053.67
2018-12-05T14:21:30.431Z,101051.66
2018-12-05T14:23:58.755Z,101052.51
2018-12-05T14:26:27.122Z,101048.59
2018-12-05T14:28:55.510Z,101044.50
2018-12-05T14:31:24.691Z,101038.41
2018-12-05T14:33:53.024Z,101040.96
2018-12-05T14:36:21.363Z,101043.86
2018-12-05T14:38:49.846Z,101040.36
2018-12-05T14:41:19.059Z,101046.47
2018-12-05T14:43:47.411Z,101044.48
2018-12-05T14:46:15.755Z,101037.77
2018-12-05T14:48:44.198Z,101049.36
2018-12-05T14:51:12.642Z,101043.62
2018-12-05T14:53:41.072Z,101038.38
2018-12-05T14:56:09.427Z,101043.97
2018-12-05T14:58:37.826Z,101045.81
2018-12-05T15:01:06.212Z,101041.83
2018-12-05T15:03:34.840Z,101039.33
2018-12-05T15:06:03.398Z,101040.80
2018-12-05T15:08:31.908Z,101044.45
2018-12-05T15:11:00.332Z,101042.45
2018-12-05T15:13:28.767Z,101051.23
2018-12-05T15:15:57.300Z,101047.23
2018-12-05T15:18:25.641Z,101045.59
2018-12-05T15:20:53.987Z,101044.08
2018-12-05T15:23:22.439Z,101036.48
2018-12-05T15:25:50.850Z,101030.48
2018-12-05T15:28:19.161Z,101031.89
2018-12-05T15:30:50.312Z,101032.38
2018-12-05T15:33:18.791Z,101026.99
2018-12-05T15:35:47.415Z,101027.72
2018-12-05T15:38:19.813Z,101023.58
2018-12-05T15:40:48.416Z,101020.23
2018-12-05T15:43:16.858Z,101018.44
2018-12-05T15:45:45.190Z,101015.72
2018-12-05T15:48:13.576Z,101009.77
2018-12-05T15:50:41.941Z,101003.60
2018-12-05T15:53:10.286Z,101001.67
2018-12-05T15:55:38.773Z,101004.61
2018-12-05T15:58:07.112Z,101002.53
2018-12-05T16:00:35.539Z,100996.73
2018-12-05T16:03:04.000Z,100997.47
2018-12-05T16:05:32.330Z,100986.70
2018-12-05T16:08:04.587Z,100978.59
2018-12-05T16:10:33.656Z,100976.36
2018-12-05T16:13:02.140Z,100978.73
2018-12-05T16:15:30.576Z,100980.16
2018-12-05T16:17:59.146Z,100976.28
2018-12-05T16:20:27.471Z,100966.85
2018-12-05T16:22:56.352Z,100969.30
2018-12-05T16:25:24.688Z,100962.86
2018-12-05T16:27:53.160Z,100963.29
2018-12-05T16:30:21.512Z,100966.34
2018-12-05T16:32:49.872Z,100963.33
2018-12-05T16:35:18.319Z,100963.13
2018-12-05T16:37:46.639Z,100958.27
2018-12-05T16:40:15.013Z,100955.47
2018-12-05T16:42:43.645Z,100954.33
2018-12-05T16:45:12.301Z,100949.21
2018-12-05T16:47:40.645Z,100950.25
2018-12-05T16:50:09.041Z,100955.64
2018-12-05T16:52:37.434Z,100950.16
2018-12-05T16:55:06.001Z,100950.59
2018-12-05T16:57:34.400Z,100953.23
2018-12-05T17:00:02.754Z,100960.16
2018-12-05T17:02:31.138Z,100949.80
2018-12-05T17:04:59.527Z,100950.95
2018-12-05T17:07:27.954Z,100950.34
2018-12-05T17:09:56.281Z,100951.66
2018-12-05T17:12:24.611Z,100949.24
2018-12-05T17:14:53.077Z,100944.56
2018-12-05T17:17:21.528Z,100940.50
2018-12-05T17:19:50.242Z,100948.53
2018-12-05T17:22:18.717Z,100943.34
2018-12-05T17:24:47.073Z,100935.59
2018-12-05T17:27:15.442Z,100941.20
2018-12-05T17:29:43.954Z,100936.62
2018-12-05T17:32:12.332Z,100939.89
2018-12-05T17:34:40.666Z,100933.68
2018-12-05T17:37:09.998Z,100937.64
2018-12-05T17:39:38.457Z,100938.75
2018-12-05T17:42:06.780Z,100934.66
2018-12-05T17:44:35.160Z,100935.13
2018-12-05T17:47:03.504Z,100930.95
2018-12-05T17:49:31.928Z,100929.23
2018-12-05T17:52:00.267Z,100918.77
2018-12-05T17:54:28.585Z,100922.22
2018-12-05T17:56:56.917Z,100926.70
2018-12-05T17:59:25.268Z,100926.56
2018-12-05T18:01:53.598Z,100917.73
2018-12-05T18:04:21.934Z,100916.33
2018-12-05T18:06:50.359Z,100913.28
2018-12-05T18:09:18.723Z,100908.08
2018-12-05T18:11:47.191Z,100904.32
2018-12-05T18:14:15.546Z,100902.09
2018-12-05T18:16:44.026Z,100906.37
2018-12-05T18:19:12.365Z,100899.48
2018-12-05T18:21:40.757Z,100895.64
2018-12-05T18:24:09.224Z,100894.09
2018-12-05T18:26:37.911Z,100895.23
2018-12-05T18:29:06.260Z,100891.46
2018-12-05T18:31:34.708Z,100884.04
2018-12-05T18:34:03.132Z,100888.30
2018-12-05T18:36:31.579Z,100889.95
2018-12-05T18:38:59.996Z,100879.97
2018-12-05T18:41:29.016Z,100878.66
2018-12-05T18:43:57.734Z,100880.40
2018-12-05T18:46:26.079Z,100878.66
2018-12-05T18:48:54.522Z,100876.20
2018-12-05T18:51:22.895Z,100870.11
2018-12-05T18:53:51.249Z,100871.72
2018-12-05T18:56:19.707Z,100862.38
2018-12-05T18:58:48.175Z,100859.56
2018-12-05T19:01:16.619Z,100860.70
2018-12-05T19:03:44.967Z,100852.77
2018-12-05T19:06:13.655Z,100859.05
2018-12-05T19:08:42.056Z,100858.68
2018-12-05T19:11:10.466Z,100859.39
2018-12-05T19:13:44.843Z,100865.20
2018-12-05T19:16:13.160Z,100857.55
2018-12-05T19:18:41.539Z,100852.58
2018-12-05T19:21:09.923Z,100848.29
2018-12-05T19:23:38.293Z,100847.16
2018-12-05T19:26:07.237Z,100853.16
2018-12-05T19:28:35.581Z,100846.16
2018-12-05T19:31:03.983Z,100841.06
2018-12-05T19:33:32.326Z,100844.55
2018-12-05T19:36:00.725Z,100840.26
2018-12-05T19:38:29.586Z,100834.77
2018-12-05T19:40:57.915Z,100838.13
2018-12-05T19:43:26.243Z,100834.16
2018-12-05T19:45:55.440Z,100841.30
2018-12-05T19:48:23.960Z,100836.48
2018-12-05T19:50:52.420Z,100837.80
2018-12-05T19:53:20.800Z,100833.84
2018-12-05T19:55:49.194Z,100832.73
2018-12-05T19:58:17.525Z,100833.83
2018-12-05T20:00:47.756Z,100831.70
2018-12-05T20:03:17.228Z,100823.23
2018-12-05T20:05:45.619Z,100831.27
2018-12-05T20:08:14.050Z,100821.73
2018-12-05T20:10:42.403Z,100820.60
2018-12-05T20:13:10.780Z,100813.37
2018-12-05T20:15:39.193Z,100818.80
2018-12-05T20:18:07.578Z,100814.93
2018-12-05T20:20:35.982Z,100815.54
2018-12-05T20:23:05.062Z,100812.14
2018-12-05T20:25:33.555Z,100810.03
2018-12-05T20:28:01.917Z,100797.41
2018-12-05T20:30:30.267Z,100797.83
2018-12-05T20:32:58.610Z,100799.95
2018-12-05T20:35:27.595Z,100800.38
2018-12-05T20:37:56.310Z,100793.23
2018-12-05T20:40:24.923Z,100783.63
2018-12-05T20:42:53.727Z,100779.75
2018-12-05T20:45:22.056Z,100775.27
2018-12-05T20:47:50.454Z,100770.83
2018-12-05T20:50:18.950Z,100765.02
2018-12-05T20:52:47.417Z,100760.85
2018-12-05T20:55:15.825Z,100753.11
2018-12-05T20:57:44.178Z,100754.61
2018-12-05T21:00:12.652Z,100746.99
2018-12-05T21:02:41.075Z,100738.02
2018-12-05T21:05:09.453Z,100734.16
2018-12-05T21:07:37.841Z,100736.27
2018-12-05T21:10:06.220Z,100725.68
2018-12-05T21:12:34.553Z,100722.83
2018-12-05T21:15:03.195Z,100727.29
2018-12-05T21:17:31.554Z,100733.07
2018-12-05T21:19:59.941Z,100736.81
2018-12-05T21:22:28.476Z,100734.80
2018-12-05T21:24:56.888Z,100722.08
2018-12-05T21:27:25.352Z,100725.02
2018-12-05T21:29:54.077Z,100717.08
2018-12-05T21:32:22.413Z,100715.14
2018-12-05T21:34:50.830Z,100705.48
2018-12-05T21:37:19.160Z,100697.91
2018-12-05T21:39:47.593Z,100693.57
2018-12-05T21:42:16.230Z,100686.95
2018-12-05T21:44:44.619Z,100685.71
2018-12-05T21:47:13.046Z,100683.23
2018-12-05T21:49:41.822Z,100678.30
2018-12-05T21:52:10.428Z,100676.45
2018-12-05T21:54:38.768Z,100673.36
2018-12-05T21:57:07.279Z,100668.50
2018-12-05T21:59:35.667Z,100666.39
2018-12-05T22:02:04.255Z,100666.11
2018-12-05T22:04:32.608Z,100663.74
2018-12-05T22:07:00.984Z,100660.69
2018-12-05T22:09:29.378Z,100659.56
2018-12-05T22:11:57.718Z,100655.47
2018-12-05T22:14:26.094Z,100648.34
2018-12-05T22:16:54.502Z,100648.05
2018-12-05T22:19:22.844Z,100647.94
2018-12-05T22:21:51.176Z,100650.30
2018-12-05T22:24:19.587Z,100645.17
2018-12-05T22:26:48.021Z,100642.44
2018-12-05T22:29:16.396Z,100618.92
2018-12-05T22:31:45.650Z,100618.92
2018-12-05T22:34:14.275Z,100638.27
2018-12-05T22:36:42.700Z,100609.66
2018-12-05T22:39:11.073Z,100612.31
2018-12-05T22:41:39.566Z,100606.70
2018-12-05T22:44:07.967Z,100609.42
2018-12-05T22:46:36.681Z,100611.27
2018-12-05T22:49:05.163Z,100599.36
2018-12-05T22:51:33.479Z,100596.50
2018-12-05T22:54:02.044Z,100579.58
2018-12-05T22:56:31.447Z,100589.36
2018-12-05T22:59:00.067Z,100575.40
2018-12-05T23:01:28.824Z,100576.92
2018-12-05T23:03:57.225Z,100573.84
2018-12-05T23:06:25.566Z,100569.94
2018-12-05T23:08:53.929Z,100561.12
2018-12-05T23:11:22.568Z,100557.02
2018-12-05T23:13:50.996Z,100548.34
2018-12-05T23:16:19.325Z,100532.00
2018-12-05T23:18:47.744Z,100535.63
2018-12-05T23:21:16.331Z,100530.61
2018-12-05T23:23:44.725Z,100525.91
2018-12-05T23:26:13.136Z,100513.02
2018-12-05T23:28:41.815Z,100507.52
2018-12-05T23:31:11.570Z,100501.17
2018-12-05T23:33:39.915Z,100500.38
2018-12-05T23:36:08.279Z,100491.25
2018-12-05T23:38:36.681Z,100484.20
2018-12-05T23:41:05.005Z,100482.95
2018-12-05T23:43:33.919Z,100478.91
2018-12-05T23:46:02.298Z,100480.05
2018-12-05T23:48:30.657Z,100491.77
2018-12-05T23:50:58.977Z,100454.95
2018-12-05T23:53:27.311Z,100455.19
2018-12-05T23:55:55.976Z,100459.16
2018-12-05T23:58:24.374Z,100447.83
